Purysburgh, South Carolina
Current Conditions -  °F | °C
As of 3:53 PM on Tuesday 21 Oct 2014 (Local Time) from KSAV Reporting Station
Clear Clear  
Wind Chill: 80°   Ceiling: Unl
Heat Index: 80°   Visibility: 10mi
Dew Point: 52°   Wind: 9mph
Humidity: 38%   Direction: 290°WNW
Pressure: 29.9"   Gusts: NA
Location:  32.2576°N, 81.057°W
Report Text: KSAV 211953Z 29008KT 10SM CLR 27/11 A2990 RMK AO2 SLP122 T02670111
Loading
Personal Weather Stations






























Interactive Weather Map
Tropical Storm Tracking
New forecast layout! Learn more

10-Day Weather Forecast

Advertisements
Track Severe Weather on mobile